To NAV CANADA Home Page Login to a new session Search on AWWS site Feedback and Comments Disclaimer Vers la page française équivalente Tips FAQ What's new on the site To the Forecasts and Observations / NOTAM section To "File a Flight Plan" website Publications and other links Update of the User's profile FIC Telephone Numbers My Weather Data Folder Route Weather Data Regional Weather Data Local Weather Data To the Forecasts and Observations / NOTAM section
Request Generated 04/19/2015 at 10:54:24 UTC . Weather information available at that time is displayed.

METAR/TAF

THOMPSON/MB    

METAR CYTH 191000Z 03017G25KT 5SM -SN OVC009 M03/M04 A2996 RMK SF8
SLP162=
METAR CYTH 190900Z 03014G23KT 6SM -SN OVC008 M02/M03 A2996 RMK SF8
SLP160=
METAR CYTH 190800Z 03017G25KT 6SM -SN BKN008 OVC030 M00/M01 A2994 RMK
SF7SC1 SLP154=

TAF AMD CYTH 190905Z 1909/1919 03015G25KT 2SM -SN BR OVC006 TEMPO
1909/1912 6SM -SN OVC012
FM191200 04015G25KT 3/4SM -SN OVC005 TEMPO 1912/1915 3SM -SN
OVC010
FM191500 05020G30KT 3SM -SN OVC012 TEMPO 1915/1919 1SM -SN OVC008
RMK NXT FCST BY 191300Z=
Your time UTC time
Weather data provided by Environment Canada and NAV CANADA